Reklama

Seznam meteostanic a jejich METAR

Vyhledat místa podle abecedy:
A B C D E F G H I J K L M N O P Q R S T U V W X Y Z

Filtrovat:

ID stanice:
a/nebo
Název místa (fulltext):
 
Místo (ID)Naposledy načteno 
Pardubice (Pardubice) 19.11.2018 00:00 UTC Zobrazit data
Místo: Pardubice
Teplota: 0 °C (pocitová: -4.3 °C)
Vítr: 1 m/s z(e) 110°
Počasí: zataženo
Dohlednost: 20 km
Zákl. oblačnosti: 8/8 2100 m
Vlhkost: 60%
Pec pod Sněžkou (Pec p.Snez) 19.11.2018 00:00 UTC Zobrazit data
Místo: Pec pod Sněžkou
Teplota: 0 °C (pocitová: -7.3 °C)
Vítr: 3 m/s z(e) 30°
Počasí: sněží
Dohlednost: 12 km
Zákl. oblačnosti: 8/8 270 m
Vlhkost: 87%
Plzeň město - Mikulka (Plzen/Miku) 19.11.2018 00:00 UTC Zobrazit data
Místo: Plzeň město - Mikulka
Teplota: 0 °C (pocitová: -5.9 °C)
Vítr: 2 m/s z(e) 0°
Počasí: zataženo
Dohlednost: 27 km
Zákl. oblačnosti: 8/8 1800 m
Vlhkost: 51%
Polom (Polom) 19.11.2018 00:00 UTC Zobrazit data
Místo: Polom
Teplota: -2 °C (pocitová: -11.1 °C)
Vítr: 4 m/s z(e) 20°
Počasí: zataženo
Dohlednost: 2500 m
Zákl. oblačnosti: 8/8 120 m
Vlhkost: 93%
Praha - Karlov (Praha/Kar) 19.11.2018 00:00 UTC Zobrazit data
Místo: Praha - Karlov
Teplota: 1 °C (pocitová: -4.6 °C)
Vítr: 2 m/s z(e) 340°
Počasí: zataženo
Dohlednost: 19 km
Zákl. oblačnosti: 6/8 1110 m;8/8 1800 m
Vlhkost: 70%
Praha - Kbely (Praha/Kbe) 19.11.2018 00:00 UTC Zobrazit data
Místo: Praha - Kbely
Teplota: 0 °C (pocitová: -5.9 °C)
Vítr: 2 m/s z(e) 330°
Počasí: skoro zataženo
Dohlednost: 10 km
Zákl. oblačnosti: 3/8 1200 m;7/8 1800 m
Vlhkost: 80%
Praha - Libuš (Praha/Lib) 19.11.2018 00:00 UTC Zobrazit data
Místo: Praha - Libuš
Teplota: 0 °C (pocitová: -5.9 °C)
Vítr: 2 m/s z(e) 0°
Počasí: zataženo
Dohlednost: 16 km
Zákl. oblačnosti: 1/8 1110 m;7/8 1800 m
Vlhkost: 64%
Praha - Ruzyně (Praha/Ru) 19.11.2018 00:00 UTC Zobrazit data
Místo: Praha - Ruzyně
Teplota: 0 °C (pocitová: -7.3 °C)
Vítr: 3 m/s z(e) 360°
Počasí: zataženo
Dohlednost: 20 km
Zákl. oblačnosti: 5/8 990 m;8/8 1800 m
Vlhkost: 64%
Přibyslav (Pribyslav) 19.11.2018 00:00 UTC Zobrazit data
Místo: Přibyslav
Teplota: 0 °C (pocitová: -7.3 °C)
Vítr: 3 m/s z(e) 20°
Počasí: zataženo
Dohlednost: 35 km
Zákl. oblačnosti: 1/8 1140 m;8/8 1380 m
Vlhkost: 55%
Přimda (Primda) 19.11.2018 00:00 UTC Zobrazit data
Místo: Přimda
Teplota: -1 °C (pocitová: -9.8 °C)
Vítr: 4 m/s z(e) 80°
Počasí: zataženo
Dohlednost: 35 km
Zákl. oblačnosti: 8/8 210 m
Vlhkost: 64%
Pago Pago (NSTU) 18.11.2018 00:50 UTC Zobrazit METAR
NSTU 180050Z VRB06KT 12SM SCT017 SCT040 30/26 A2976 RMK SLP080 T03010255
Palanga (EYPA) 19.11.2018 00:50 UTC Zobrazit METAR
EYPA 190050Z AUTO 04009KT 9999 BKN023/// 02/00 Q1031
Palermo (LICJ) 19.11.2018 00:50 UTC Zobrazit METAR
LICJ 190050Z 20008KT CAVOK 15/11 Q1008
Palma de Mallorca (LEPA) 19.11.2018 01:00 UTC Zobrazit METAR
LEPA 190100Z 07009KT 9999 FEW020 SCT026 14/13 Q1004 NOSIG
Panama City (MPTO) 19.11.2018 01:00 UTC Zobrazit METAR
MPTO 190100Z 31003KT 9999 SCT018 SCT090 28/25 Q1009 NOSIG
Paramaribo (SMZO) 18.11.2018 15:00 UTC Zobrazit METAR
SMZO 181500Z 12008KT 9999 SCT030 31/23 Q1012 NOSIG
Paris (LFPG) 19.11.2018 01:00 UTC Zobrazit METAR
LFPG 190100Z 36009KT CAVOK 01/M03 Q1018 NOSIG
Paro (VQPR) 18.11.2018 10:00 UTC Zobrazit METAR
VQPR 181000Z 14019KT 9999 SCT050 14/00 Q1018
Phnom Penh (VDPP) 18.11.2018 23:00 UTC Zobrazit METAR
VDPP 182300Z VRB03KT 9000 SCT017 SCT040 26/25 Q1010
Plovdiv (LBPD) 19.11.2018 01:00 UTC Zobrazit METAR
LBPD 190100Z AUTO 28007KT 9999 -RA OVC020/// 02/02 Q1010
Pohnpei I (PTPN) 18.11.2018 23:52 UTC Zobrazit METAR
PTPN 182352Z 03005KT 15SM SCT018 BKN130 OVC300 31/26 A2973
Ponta Delgada (LPPD) 19.11.2018 01:00 UTC Zobrazit METAR
LPPD 190100Z 35013KT 320V020 9999 FEW017 BKN035 17/14 Q1011
Pori (EFPO) 19.11.2018 00:50 UTC Zobrazit METAR
EFPO 190050Z AUTO VRB02KT CAVOK M03/M05 Q1040
Port Moresby (AYPY) 19.11.2018 00:00 UTC Zobrazit METAR
AYPY 190000Z 30004KT 9999 HZ SCT050 31/19 Q1011=
Port of Spain (TTPP) 19.11.2018 01:00 UTC Zobrazit METAR
TTPP 190100Z 12005KT 9999 FEW016 BKN040 25/24 Q1013 NOSIG
Port Vila (NVVV) 13.11.2018 21:00 UTC Zobrazit METAR
NVVV 132100Z 10008KT 9999 FEW010 SCT020 OVC040 26/24 Q1009 RMK RESH
Port-au-Prince (MTPP) 19.11.2018 01:00 UTC Zobrazit METAR
MTPP 190100Z 13005KT 9000 SCT024 BKN050 29/22 Q1014 A2994
Porto (LPPR) 19.11.2018 01:00 UTC Zobrazit METAR
LPPR 190100Z 00000KT 8000 SCT048 13/12 Q1001
Poznan (EPPO) 19.11.2018 01:00 UTC Zobrazit METAR
EPPO 190100Z 05009KT 9999 BKN009 04/03 Q1023
Prague (LKPR) 19.11.2018 01:00 UTC Zobrazit METAR
LKPR 190100Z 34007KT 9999 -SN FEW030 M01/M04 Q1018 NOSIG
Praia (GVFM) Zatím nenačteno  
Pyongyang (ZKPY) Zatím nenačteno  
Reklama

Počasí na Váš email

Emaily jsou bez reklamy a bez spamu



Odhlásit newsletter

Reklama


Lunární kalendář

  • 23.11.
  • 30.11.
  • 07.12.
  • 15.12.



Reklama


Reklama
Povinné ručení
Reklama



Reklama